sensor_id;sensor_type;location;lat;lon;timestamp;P1;durP1;ratioP1;P2;durP2;ratioP2
16524;SDS011;8375;33.594;-117.718;2023-05-21T00:01:07;13.77;;;11.33;;
16524;SDS011;8375;33.594;-117.718;2023-05-21T00:03:42;15.50;;;12.13;;
16524;SDS011;8375;33.594;-117.718;2023-05-21T00:06:11;17.17;;;12.47;;
16524;SDS011;8375;33.594;-117.718;2023-05-21T00:08:40;19.27;;;11.73;;
16524;SDS011;8375;33.594;-117.718;2023-05-21T00:11:09;17.40;;;12.27;;
16524;SDS011;8375;33.594;-117.718;2023-05-21T00:13:37;17.57;;;12.33;;
16524;SDS011;8375;33.594;-117.718;2023-05-21T00:16:06;19.87;;;13.10;;
16524;SDS011;8375;33.594;-117.718;2023-05-21T00:18:35;18.17;;;12.77;;
16524;SDS011;8375;33.594;-117.718;2023-05-21T00:21:07;17.90;;;12.20;;
16524;SDS011;8375;33.594;-117.718;2023-05-21T00:23:36;16.17;;;12.13;;
16524;SDS011;8375;33.594;-117.718;2023-05-21T00:26:07;16.60;;;12.67;;
16524;SDS011;8375;33.594;-117.718;2023-05-21T00:28:36;18.97;;;12.80;;
16524;SDS011;8375;33.594;-117.718;2023-05-21T00:31:04;16.00;;;12.03;;
16524;SDS011;8375;33.594;-117.718;2023-05-21T00:33:33;19.03;;;12.90;;
16524;SDS011;8375;33.594;-117.718;2023-05-21T00:36:02;20.43;;;12.60;;
16524;SDS011;8375;33.594;-117.718;2023-05-21T00:38:32;18.60;;;13.00;;
16524;SDS011;8375;33.594;-117.718;2023-05-21T00:41:02;19.50;;;13.10;;
16524;SDS011;8375;33.594;-117.718;2023-05-21T00:43:31;20.13;;;13.20;;
16524;SDS011;8375;33.594;-117.718;2023-05-21T00:46:00;16.87;;;12.90;;
16524;SDS011;8375;33.594;-117.718;2023-05-21T00:48:28;18.63;;;13.10;;
16524;SDS011;8375;33.594;-117.718;2023-05-21T00:50:57;20.27;;;13.93;;
16524;SDS011;8375;33.594;-117.718;2023-05-21T00:53:26;19.10;;;12.63;;
16524;SDS011;8375;33.594;-117.718;2023-05-21T00:55:56;18.57;;;12.30;;
16524;SDS011;8375;33.594;-117.718;2023-05-21T00:58:25;17.50;;;12.10;;
16524;SDS011;8375;33.594;-117.718;2023-05-21T01:00:54;16.57;;;12.53;;
16524;SDS011;8375;33.594;-117.718;2023-05-21T01:03:23;18.70;;;12.30;;
16524;SDS011;8375;33.594;-117.718;2023-05-21T01:05:52;21.33;;;11.93;;
16524;SDS011;8375;33.594;-117.718;2023-05-21T01:08:24;16.83;;;12.17;;
16524;SDS011;8375;33.594;-117.718;2023-05-21T01:10:56;15.17;;;11.03;;
16524;SDS011;8375;33.594;-117.718;2023-05-21T01:13:25;12.97;;;10.50;;
16524;SDS011;8375;33.594;-117.718;2023-05-21T01:15:55;15.17;;;11.10;;
16524;SDS011;8375;33.594;-117.718;2023-05-21T01:18:24;15.10;;;10.87;;
16524;SDS011;8375;33.594;-117.718;2023-05-21T01:20:54;17.80;;;11.40;;
16524;SDS011;8375;33.594;-117.718;2023-05-21T01:23:24;14.73;;;10.40;;
16524;SDS011;8375;33.594;-117.718;2023-05-21T01:25:53;15.17;;;11.70;;
16524;SDS011;8375;33.594;-117.718;2023-05-21T01:28:22;15.27;;;11.10;;
16524;SDS011;8375;33.594;-117.718;2023-05-21T01:30:50;13.90;;;10.63;;
16524;SDS011;8375;33.594;-117.718;2023-05-21T01:33:21;15.97;;;11.23;;
16524;SDS011;8375;33.594;-117.718;2023-05-21T01:35:56;14.17;;;10.17;;
16524;SDS011;8375;33.594;-117.718;2023-05-21T01:38:33;16.33;;;11.50;;
16524;SDS011;8375;33.594;-117.718;2023-05-21T01:41:09;19.43;;;11.70;;
16524;SDS011;8375;33.594;-117.718;2023-05-21T01:43:40;19.63;;;11.63;;
16524;SDS011;8375;33.594;-117.718;2023-05-21T01:46:12;18.70;;;11.23;;
16524;SDS011;8375;33.594;-117.718;2023-05-21T01:48:43;18.73;;;11.97;;
16524;SDS011;8375;33.594;-117.718;2023-05-21T01:51:13;21.17;;;11.50;;
16524;SDS011;8375;33.594;-117.718;2023-05-21T01:53:44;18.13;;;11.00;;
16524;SDS011;8375;33.594;-117.718;2023-05-21T01:56:12;15.30;;;9.83;;
16524;SDS011;8375;33.594;-117.718;2023-05-21T01:58:41;15.37;;;10.77;;
16524;SDS011;8375;33.594;-117.718;2023-05-21T02:01:10;15.23;;;10.33;;
16524;SDS011;8375;33.594;-117.718;2023-05-21T02:03:38;16.77;;;10.33;;
16524;SDS011;8375;33.594;-117.718;2023-05-21T02:06:07;17.40;;;11.00;;
16524;SDS011;8375;33.594;-117.718;2023-05-21T02:08:36;16.30;;;11.07;;
16524;SDS011;8375;33.594;-117.718;2023-05-21T02:11:06;18.57;;;10.33;;
16524;SDS011;8375;33.594;-117.718;2023-05-21T02:13:35;17.57;;;11.60;;
16524;SDS011;8375;33.594;-117.718;2023-05-21T02:16:07;16.33;;;10.97;;
16524;SDS011;8375;33.594;-117.718;2023-05-21T02:18:36;15.80;;;10.00;;
16524;SDS011;8375;33.594;-117.718;2023-05-21T02:21:06;16.70;;;10.40;;
16524;SDS011;8375;33.594;-117.718;2023-05-21T02:23:35;17.17;;;10.53;;
16524;SDS011;8375;33.594;-117.718;2023-05-21T02:26:04;17.13;;;9.90;;
16524;SDS011;8375;33.594;-117.718;2023-05-21T02:28:34;16.73;;;10.17;;
16524;SDS011;8375;33.594;-117.718;2023-05-21T02:31:03;18.23;;;9.50;;
16524;SDS011;8375;33.594;-117.718;2023-05-21T02:33:31;16.27;;;9.80;;
16524;SDS011;8375;33.594;-117.718;2023-05-21T02:36:00;16.60;;;9.10;;
16524;SDS011;8375;33.594;-117.718;2023-05-21T02:38:29;18.27;;;9.07;;
16524;SDS011;8375;33.594;-117.718;2023-05-21T02:40:58;18.10;;;8.80;;
16524;SDS011;8375;33.594;-117.718;2023-05-21T02:43:28;17.67;;;8.97;;
16524;SDS011;8375;33.594;-117.718;2023-05-21T02:45:57;15.70;;;8.13;;
16524;SDS011;8375;33.594;-117.718;2023-05-21T02:48:25;13.73;;;8.20;;
16524;SDS011;8375;33.594;-117.718;2023-05-21T02:50:54;13.77;;;8.20;;
16524;SDS011;8375;33.594;-117.718;2023-05-21T02:53:23;14.77;;;7.97;;
16524;SDS011;8375;33.594;-117.718;2023-05-21T02:55:51;15.57;;;8.00;;
16524;SDS011;8375;33.594;-117.718;2023-05-21T02:58:21;13.27;;;8.37;;
16524;SDS011;8375;33.594;-117.718;2023-05-21T03:00:51;16.07;;;9.10;;
16524;SDS011;8375;33.594;-117.718;2023-05-21T03:03:20;15.50;;;8.97;;
16524;SDS011;8375;33.594;-117.718;2023-05-21T03:05:48;19.93;;;9.27;;
16524;SDS011;8375;33.594;-117.718;2023-05-21T03:08:17;16.07;;;9.67;;
16524;SDS011;8375;33.594;-117.718;2023-05-21T03:10:46;14.97;;;8.97;;
16524;SDS011;8375;33.594;-117.718;2023-05-21T03:13:15;14.00;;;8.07;;
16524;SDS011;8375;33.594;-117.718;2023-05-21T03:15:44;14.37;;;8.10;;
16524;SDS011;8375;33.594;-117.718;2023-05-21T03:18:14;15.80;;;8.47;;
16524;SDS011;8375;33.594;-117.718;2023-05-21T03:20:43;14.97;;;8.40;;
16524;SDS011;8375;33.594;-117.718;2023-05-21T03:23:12;16.83;;;9.67;;
16524;SDS011;8375;33.594;-117.718;2023-05-21T03:25:40;15.03;;;8.67;;
16524;SDS011;8375;33.594;-117.718;2023-05-21T03:28:10;19.80;;;9.63;;
16524;SDS011;8375;33.594;-117.718;2023-05-21T03:30:39;16.60;;;9.70;;
16524;SDS011;8375;33.594;-117.718;2023-05-21T03:33:11;17.43;;;9.83;;
16524;SDS011;8375;33.594;-117.718;2023-05-21T03:35:41;15.60;;;9.13;;
16524;SDS011;8375;33.594;-117.718;2023-05-21T03:38:10;15.17;;;8.50;;
16524;SDS011;8375;33.594;-117.718;2023-05-21T03:40:39;15.47;;;9.00;;
16524;SDS011;8375;33.594;-117.718;2023-05-21T03:43:07;16.50;;;9.47;;
16524;SDS011;8375;33.594;-117.718;2023-05-21T03:45:36;14.30;;;9.43;;
16524;SDS011;8375;33.594;-117.718;2023-05-21T03:48:05;11.33;;;7.80;;
16524;SDS011;8375;33.594;-117.718;2023-05-21T03:50:34;10.73;;;7.53;;
16524;SDS011;8375;33.594;-117.718;2023-05-21T03:53:04;12.63;;;7.27;;
16524;SDS011;8375;33.594;-117.718;2023-05-21T03:55:35;10.93;;;7.50;;
16524;SDS011;8375;33.594;-117.718;2023-05-21T03:58:04;13.50;;;7.40;;
16524;SDS011;8375;33.594;-117.718;2023-05-21T04:00:32;9.97;;;7.07;;
16524;SDS011;8375;33.594;-117.718;2023-05-21T04:03:02;12.83;;;6.97;;
16524;SDS011;8375;33.594;-117.718;2023-05-21T04:05:31;11.40;;;6.87;;
16524;SDS011;8375;33.594;-117.718;2023-05-21T04:08:00;10.97;;;7.40;;
16524;SDS011;8375;33.594;-117.718;2023-05-21T04:10:30;9.97;;;6.30;;
16524;SDS011;8375;33.594;-117.718;2023-05-21T04:12:59;12.47;;;6.97;;
16524;SDS011;8375;33.594;-117.718;2023-05-21T04:15:28;10.03;;;6.40;;
16524;SDS011;8375;33.594;-117.718;2023-05-21T04:17:57;11.20;;;6.40;;
16524;SDS011;8375;33.594;-117.718;2023-05-21T04:20:25;13.23;;;6.67;;
16524;SDS011;8375;33.594;-117.718;2023-05-21T04:22:54;8.83;;;5.70;;
16524;SDS011;8375;33.594;-117.718;2023-05-21T04:25:23;9.40;;;5.50;;
16524;SDS011;8375;33.594;-117.718;2023-05-21T04:27:53;10.00;;;6.20;;
16524;SDS011;8375;33.594;-117.718;2023-05-21T04:30:21;7.80;;;5.73;;
16524;SDS011;8375;33.594;-117.718;2023-05-21T04:32:50;10.10;;;5.97;;
16524;SDS011;8375;33.594;-117.718;2023-05-21T04:35:19;9.40;;;6.13;;
16524;SDS011;8375;33.594;-117.718;2023-05-21T04:37:48;8.93;;;5.87;;
16524;SDS011;8375;33.594;-117.718;2023-05-21T04:40:16;8.07;;;5.10;;
16524;SDS011;8375;33.594;-117.718;2023-05-21T04:42:48;10.03;;;6.17;;
16524;SDS011;8375;33.594;-117.718;2023-05-21T04:45:19;9.03;;;5.83;;
16524;SDS011;8375;33.594;-117.718;2023-05-21T04:47:49;7.37;;;5.73;;
16524;SDS011;8375;33.594;-117.718;2023-05-21T04:50:17;10.57;;;5.80;;
16524;SDS011;8375;33.594;-117.718;2023-05-21T04:52:47;9.90;;;5.27;;
16524;SDS011;8375;33.594;-117.718;2023-05-21T04:55:16;9.97;;;5.00;;
16524;SDS011;8375;33.594;-117.718;2023-05-21T04:57:45;9.17;;;5.23;;
16524;SDS011;8375;33.594;-117.718;2023-05-21T05:00:14;9.17;;;5.00;;
16524;SDS011;8375;33.594;-117.718;2023-05-21T05:02:45;9.30;;;4.87;;
16524;SDS011;8375;33.594;-117.718;2023-05-21T05:05:14;7.20;;;5.00;;
16524;SDS011;8375;33.594;-117.718;2023-05-21T05:07:43;10.53;;;5.50;;
16524;SDS011;8375;33.594;-117.718;2023-05-21T05:10:12;9.30;;;5.40;;
16524;SDS011;8375;33.594;-117.718;2023-05-21T05:12:41;7.23;;;4.93;;
16524;SDS011;8375;33.594;-117.718;2023-05-21T05:15:10;8.37;;;6.03;;
16524;SDS011;8375;33.594;-117.718;2023-05-21T05:17:38;6.63;;;5.40;;
16524;SDS011;8375;33.594;-117.718;2023-05-21T05:20:09;7.60;;;5.83;;
16524;SDS011;8375;33.594;-117.718;2023-05-21T05:22:38;11.87;;;6.53;;
16524;SDS011;8375;33.594;-117.718;2023-05-21T05:25:07;7.07;;;5.23;;
16524;SDS011;8375;33.594;-117.718;2023-05-21T05:27:36;9.37;;;6.00;;
16524;SDS011;8375;33.594;-117.718;2023-05-21T05:30:05;9.93;;;6.37;;
16524;SDS011;8375;33.594;-117.718;2023-05-21T05:32:34;10.33;;;6.70;;
16524;SDS011;8375;33.594;-117.718;2023-05-21T05:35:03;11.37;;;6.07;;
16524;SDS011;8375;33.594;-117.718;2023-05-21T05:37:34;7.90;;;5.80;;
16524;SDS011;8375;33.594;-117.718;2023-05-21T05:40:03;7.40;;;5.53;;
16524;SDS011;8375;33.594;-117.718;2023-05-21T05:42:33;6.30;;;5.00;;
16524;SDS011;8375;33.594;-117.718;2023-05-21T05:45:02;7.50;;;5.03;;
16524;SDS011;8375;33.594;-117.718;2023-05-21T05:47:31;8.00;;;5.20;;
16524;SDS011;8375;33.594;-117.718;2023-05-21T05:49:59;6.80;;;4.90;;
16524;SDS011;8375;33.594;-117.718;2023-05-21T05:52:28;7.53;;;5.23;;
16524;SDS011;8375;33.594;-117.718;2023-05-21T05:54:58;7.10;;;5.40;;
16524;SDS011;8375;33.594;-117.718;2023-05-21T05:57:27;8.67;;;5.50;;
16524;SDS011;8375;33.594;-117.718;2023-05-21T05:59:55;7.83;;;4.97;;
16524;SDS011;8375;33.594;-117.718;2023-05-21T06:02:24;7.43;;;5.53;;
16524;SDS011;8375;33.594;-117.718;2023-05-21T06:04:53;7.00;;;5.30;;
16524;SDS011;8375;33.594;-117.718;2023-05-21T06:07:22;8.10;;;5.40;;
16524;SDS011;8375;33.594;-117.718;2023-05-21T06:09:51;6.70;;;4.97;;
16524;SDS011;8375;33.594;-117.718;2023-05-21T06:12:22;9.10;;;5.87;;
16524;SDS011;8375;33.594;-117.718;2023-05-21T06:14:50;8.60;;;6.00;;
16524;SDS011;8375;33.594;-117.718;2023-05-21T06:17:19;9.57;;;5.97;;
16524;SDS011;8375;33.594;-117.718;2023-05-21T06:19:47;7.33;;;5.27;;
16524;SDS011;8375;33.594;-117.718;2023-05-21T06:22:16;10.67;;;5.80;;
16524;SDS011;8375;33.594;-117.718;2023-05-21T06:24:45;11.33;;;6.03;;
16524;SDS011;8375;33.594;-117.718;2023-05-21T06:27:13;10.40;;;6.73;;
16524;SDS011;8375;33.594;-117.718;2023-05-21T06:29:44;9.47;;;5.93;;
16524;SDS011;8375;33.594;-117.718;2023-05-21T06:32:12;8.10;;;5.60;;
16524;SDS011;8375;33.594;-117.718;2023-05-21T06:34:41;7.17;;;5.23;;
16524;SDS011;8375;33.594;-117.718;2023-05-21T06:37:10;8.17;;;5.27;;
16524;SDS011;8375;33.594;-117.718;2023-05-21T06:39:39;8.07;;;5.17;;
16524;SDS011;8375;33.594;-117.718;2023-05-21T06:42:07;11.37;;;6.00;;
16524;SDS011;8375;33.594;-117.718;2023-05-21T06:44:36;11.30;;;6.47;;
16524;SDS011;8375;33.594;-117.718;2023-05-21T06:47:06;9.80;;;6.70;;
16524;SDS011;8375;33.594;-117.718;2023-05-21T06:49:35;11.47;;;6.73;;
16524;SDS011;8375;33.594;-117.718;2023-05-21T06:52:04;10.30;;;6.20;;
16524;SDS011;8375;33.594;-117.718;2023-05-21T06:54:33;12.47;;;7.27;;
16524;SDS011;8375;33.594;-117.718;2023-05-21T06:57:01;10.87;;;7.80;;
16524;SDS011;8375;33.594;-117.718;2023-05-21T06:59:30;11.90;;;6.77;;
16524;SDS011;8375;33.594;-117.718;2023-05-21T07:01:59;10.60;;;7.27;;
16524;SDS011;8375;33.594;-117.718;2023-05-21T07:04:30;12.00;;;7.07;;
16524;SDS011;8375;33.594;-117.718;2023-05-21T07:06:59;11.87;;;7.83;;
16524;SDS011;8375;33.594;-117.718;2023-05-21T07:09:29;12.20;;;6.87;;
16524;SDS011;8375;33.594;-117.718;2023-05-21T07:11:58;10.13;;;6.63;;
16524;SDS011;8375;33.594;-117.718;2023-05-21T07:14:27;14.10;;;7.43;;
16524;SDS011;8375;33.594;-117.718;2023-05-21T07:16:56;12.13;;;7.17;;
16524;SDS011;8375;33.594;-117.718;2023-05-21T07:19:26;14.10;;;6.77;;
16524;SDS011;8375;33.594;-117.718;2023-05-21T07:21:56;11.57;;;6.80;;
16524;SDS011;8375;33.594;-117.718;2023-05-21T07:24:27;10.20;;;7.00;;
16524;SDS011;8375;33.594;-117.718;2023-05-21T07:26:58;12.67;;;7.40;;
16524;SDS011;8375;33.594;-117.718;2023-05-21T07:29:28;14.83;;;8.00;;
16524;SDS011;8375;33.594;-117.718;2023-05-21T07:31:59;13.27;;;7.87;;
16524;SDS011;8375;33.594;-117.718;2023-05-21T07:34:28;14.20;;;7.57;;
16524;SDS011;8375;33.594;-117.718;2023-05-21T07:36:59;12.60;;;7.20;;
16524;SDS011;8375;33.594;-117.718;2023-05-21T07:39:30;12.97;;;7.23;;
16524;SDS011;8375;33.594;-117.718;2023-05-21T07:42:00;9.87;;;6.77;;
16524;SDS011;8375;33.594;-117.718;2023-05-21T07:44:29;15.00;;;7.93;;
16524;SDS011;8375;33.594;-117.718;2023-05-21T07:46:58;12.00;;;6.53;;
16524;SDS011;8375;33.594;-117.718;2023-05-21T07:49:27;11.93;;;7.27;;
16524;SDS011;8375;33.594;-117.718;2023-05-21T07:51:57;14.63;;;7.00;;
16524;SDS011;8375;33.594;-117.718;2023-05-21T07:54:28;13.93;;;6.53;;
16524;SDS011;8375;33.594;-117.718;2023-05-21T07:56:57;10.37;;;6.40;;
16524;SDS011;8375;33.594;-117.718;2023-05-21T07:59:27;9.50;;;6.40;;
16524;SDS011;8375;33.594;-117.718;2023-05-21T08:01:56;9.73;;;6.20;;
16524;SDS011;8375;33.594;-117.718;2023-05-21T08:04:25;12.27;;;6.53;;
16524;SDS011;8375;33.594;-117.718;2023-05-21T08:06:54;8.03;;;5.70;;
16524;SDS011;8375;33.594;-117.718;2023-05-21T08:09:25;9.63;;;5.83;;
16524;SDS011;8375;33.594;-117.718;2023-05-21T08:11:54;7.70;;;5.80;;
16524;SDS011;8375;33.594;-117.718;2023-05-21T08:14:23;9.77;;;5.90;;
16524;SDS011;8375;33.594;-117.718;2023-05-21T08:16:54;11.73;;;6.10;;
16524;SDS011;8375;33.594;-117.718;2023-05-21T08:19:23;9.83;;;5.40;;
16524;SDS011;8375;33.594;-117.718;2023-05-21T08:21:55;8.20;;;5.63;;
16524;SDS011;8375;33.594;-117.718;2023-05-21T08:24:27;9.97;;;5.33;;
16524;SDS011;8375;33.594;-117.718;2023-05-21T08:26:56;11.17;;;5.57;;
16524;SDS011;8375;33.594;-117.718;2023-05-21T08:29:26;12.87;;;6.57;;
16524;SDS011;8375;33.594;-117.718;2023-05-21T08:31:57;10.60;;;5.60;;
16524;SDS011;8375;33.594;-117.718;2023-05-21T08:34:28;9.57;;;5.83;;
16524;SDS011;8375;33.594;-117.718;2023-05-21T08:37:03;9.40;;;6.17;;
16524;SDS011;8375;33.594;-117.718;2023-05-21T08:39:34;10.53;;;6.50;;
16524;SDS011;8375;33.594;-117.718;2023-05-21T08:42:06;10.60;;;6.20;;
16524;SDS011;8375;33.594;-117.718;2023-05-21T08:44:42;10.30;;;5.67;;
16524;SDS011;8375;33.594;-117.718;2023-05-21T16:46:29;4.40;;;4.00;;
16524;SDS011;8375;33.594;-117.718;2023-05-21T16:48:58;6.80;;;4.50;;
16524;SDS011;8375;33.594;-117.718;2023-05-21T16:51:27;4.87;;;4.17;;
16524;SDS011;8375;33.594;-117.718;2023-05-21T16:53:57;5.33;;;4.00;;
16524;SDS011;8375;33.594;-117.718;2023-05-21T16:56:27;4.77;;;4.20;;
16524;SDS011;8375;33.594;-117.718;2023-05-21T16:58:56;6.87;;;4.77;;
16524;SDS011;8375;33.594;-117.718;2023-05-21T17:01:24;6.77;;;4.60;;
16524;SDS011;8375;33.594;-117.718;2023-05-21T17:03:54;6.70;;;4.70;;
16524;SDS011;8375;33.594;-117.718;2023-05-21T17:06:23;5.87;;;4.70;;
16524;SDS011;8375;33.594;-117.718;2023-05-21T17:08:52;6.40;;;4.17;;
16524;SDS011;8375;33.594;-117.718;2023-05-21T17:11:20;5.97;;;4.20;;
16524;SDS011;8375;33.594;-117.718;2023-05-21T17:13:49;4.40;;;4.00;;
16524;SDS011;8375;33.594;-117.718;2023-05-21T17:16:18;5.00;;;4.00;;
16524;SDS011;8375;33.594;-117.718;2023-05-21T17:18:47;4.27;;;3.87;;
16524;SDS011;8375;33.594;-117.718;2023-05-21T17:21:17;4.67;;;4.10;;
16524;SDS011;8375;33.594;-117.718;2023-05-21T17:23:46;5.00;;;4.50;;
16524;SDS011;8375;33.594;-117.718;2023-05-21T17:26:15;4.60;;;4.20;;
16524;SDS011;8375;33.594;-117.718;2023-05-21T17:28:44;4.37;;;3.97;;
16524;SDS011;8375;33.594;-117.718;2023-05-21T17:31:15;4.60;;;4.10;;
16524;SDS011;8375;33.594;-117.718;2023-05-21T17:33:44;5.33;;;3.60;;
16524;SDS011;8375;33.594;-117.718;2023-05-21T17:36:13;4.57;;;3.50;;
16524;SDS011;8375;33.594;-117.718;2023-05-21T17:38:43;4.13;;;3.60;;
16524;SDS011;8375;33.594;-117.718;2023-05-21T17:41:11;6.33;;;3.87;;
16524;SDS011;8375;33.594;-117.718;2023-05-21T17:43:43;4.00;;;3.60;;
16524;SDS011;8375;33.594;-117.718;2023-05-21T17:46:12;4.20;;;3.60;;
16524;SDS011;8375;33.594;-117.718;2023-05-21T17:48:42;3.97;;;3.57;;
16524;SDS011;8375;33.594;-117.718;2023-05-21T17:51:11;5.03;;;4.00;;
16524;SDS011;8375;33.594;-117.718;2023-05-21T17:53:41;4.80;;;3.90;;
16524;SDS011;8375;33.594;-117.718;2023-05-21T17:56:11;5.93;;;4.13;;
16524;SDS011;8375;33.594;-117.718;2023-05-21T17:58:39;4.43;;;4.03;;
16524;SDS011;8375;33.594;-117.718;2023-05-21T18:01:09;4.97;;;4.00;;
16524;SDS011;8375;33.594;-117.718;2023-05-21T18:03:37;6.33;;;3.77;;
16524;SDS011;8375;33.594;-117.718;2023-05-21T18:06:06;4.70;;;3.83;;
16524;SDS011;8375;33.594;-117.718;2023-05-21T18:08:35;4.27;;;3.80;;
16524;SDS011;8375;33.594;-117.718;2023-05-21T18:11:05;4.50;;;3.90;;
16524;SDS011;8375;33.594;-117.718;2023-05-21T18:13:34;5.87;;;3.73;;
16524;SDS011;8375;33.594;-117.718;2023-05-21T18:16:03;4.93;;;3.63;;
16524;SDS011;8375;33.594;-117.718;2023-05-21T18:18:32;4.50;;;3.93;;
16524;SDS011;8375;33.594;-117.718;2023-05-21T18:21:01;4.13;;;3.70;;
16524;SDS011;8375;33.594;-117.718;2023-05-21T18:23:31;5.07;;;4.40;;
16524;SDS011;8375;33.594;-117.718;2023-05-21T18:26:00;4.10;;;3.70;;
16524;SDS011;8375;33.594;-117.718;2023-05-21T18:28:32;5.00;;;4.03;;
16524;SDS011;8375;33.594;-117.718;2023-05-21T18:31:00;5.17;;;4.63;;
16524;SDS011;8375;33.594;-117.718;2023-05-21T18:33:29;4.57;;;3.93;;
16524;SDS011;8375;33.594;-117.718;2023-05-21T18:35:58;4.47;;;4.07;;
16524;SDS011;8375;33.594;-117.718;2023-05-21T18:38:27;4.32;;;3.78;;
16524;SDS011;8375;33.594;-117.718;2023-05-21T18:40:56;4.30;;;3.90;;
16524;SDS011;8375;33.594;-117.718;2023-05-21T18:43:26;4.93;;;4.43;;
16524;SDS011;8375;33.594;-117.718;2023-05-21T18:45:57;5.50;;;4.13;;
16524;SDS011;8375;33.594;-117.718;2023-05-21T18:48:26;5.13;;;4.72;;
16524;SDS011;8375;33.594;-117.718;2023-05-21T18:50:55;5.07;;;4.47;;
16524;SDS011;8375;33.594;-117.718;2023-05-21T18:53:23;4.93;;;4.53;;
16524;SDS011;8375;33.594;-117.718;2023-05-21T18:55:52;5.05;;;4.55;;
16524;SDS011;8375;33.594;-117.718;2023-05-21T18:58:21;4.50;;;4.10;;
16524;SDS011;8375;33.594;-117.718;2023-05-21T19:00:50;4.43;;;3.83;;
16524;SDS011;8375;33.594;-117.718;2023-05-21T19:03:20;5.75;;;4.80;;
16524;SDS011;8375;33.594;-117.718;2023-05-21T19:05:49;5.57;;;4.88;;
16524;SDS011;8375;33.594;-117.718;2023-05-21T19:08:18;6.13;;;5.53;;
16524;SDS011;8375;33.594;-117.718;2023-05-21T19:10:46;5.68;;;5.07;;
16524;SDS011;8375;33.594;-117.718;2023-05-21T19:13:15;5.65;;;5.15;;
16524;SDS011;8375;33.594;-117.718;2023-05-21T19:15:44;7.65;;;3.97;;
16524;SDS011;8375;33.594;-117.718;2023-05-21T19:18:13;4.85;;;3.70;;
16524;SDS011;8375;33.594;-117.718;2023-05-21T19:20:44;4.95;;;3.38;;
16524;SDS011;8375;33.594;-117.718;2023-05-21T19:23:13;6.25;;;4.15;;
16524;SDS011;8375;33.594;-117.718;2023-05-21T19:25:42;7.28;;;3.75;;
16524;SDS011;8375;33.594;-117.718;2023-05-21T19:28:11;3.75;;;3.45;;
16524;SDS011;8375;33.594;-117.718;2023-05-21T19:30:40;4.93;;;3.38;;
16524;SDS011;8375;33.594;-117.718;2023-05-21T19:33:08;5.22;;;4.35;;
16524;SDS011;8375;33.594;-117.718;2023-05-21T19:35:38;5.80;;;3.60;;
16524;SDS011;8375;33.594;-117.718;2023-05-21T19:38:10;4.45;;;3.22;;
16524;SDS011;8375;33.594;-117.718;2023-05-21T19:40:39;5.43;;;3.40;;
16524;SDS011;8375;33.594;-117.718;2023-05-21T19:43:08;4.80;;;3.17;;
16524;SDS011;8375;33.594;-117.718;2023-05-21T19:45:39;4.60;;;3.47;;
16524;SDS011;8375;33.594;-117.718;2023-05-21T19:48:08;4.50;;;3.42;;
16524;SDS011;8375;33.594;-117.718;2023-05-21T19:50:37;6.43;;;3.40;;
16524;SDS011;8375;33.594;-117.718;2023-05-21T19:53:05;3.53;;;3.22;;
16524;SDS011;8375;33.594;-117.718;2023-05-21T19:55:38;4.03;;;3.35;;
16524;SDS011;8375;33.594;-117.718;2023-05-21T19:58:06;3.15;;;2.83;;
16524;SDS011;8375;33.594;-117.718;2023-05-21T20:00:37;4.65;;;3.30;;
16524;SDS011;8375;33.594;-117.718;2023-05-21T20:03:11;4.13;;;3.67;;
16524;SDS011;8375;33.594;-117.718;2023-05-21T20:05:41;4.32;;;3.30;;
16524;SDS011;8375;33.594;-117.718;2023-05-21T20:08:10;3.28;;;2.70;;
16524;SDS011;8375;33.594;-117.718;2023-05-21T20:10:41;3.85;;;3.08;;
16524;SDS011;8375;33.594;-117.718;2023-05-21T20:13:09;4.63;;;3.28;;
16524;SDS011;8375;33.594;-117.718;2023-05-21T20:15:38;4.38;;;3.40;;
16524;SDS011;8375;33.594;-117.718;2023-05-21T20:18:07;5.10;;;2.85;;
16524;SDS011;8375;33.594;-117.718;2023-05-21T20:20:37;4.75;;;3.17;;
16524;SDS011;8375;33.594;-117.718;2023-05-21T20:23:06;4.45;;;2.88;;
16524;SDS011;8375;33.594;-117.718;2023-05-21T20:25:34;3.38;;;3.08;;
16524;SDS011;8375;33.594;-117.718;2023-05-21T20:28:05;5.00;;;3.03;;
16524;SDS011;8375;33.594;-117.718;2023-05-21T20:30:34;3.28;;;2.85;;
16524;SDS011;8375;33.594;-117.718;2023-05-21T20:33:17;3.53;;;3.20;;
16524;SDS011;8375;33.594;-117.718;2023-05-21T20:35:47;3.50;;;3.20;;
16524;SDS011;8375;33.594;-117.718;2023-05-21T20:38:15;4.00;;;3.17;;
16524;SDS011;8375;33.594;-117.718;2023-05-21T20:40:45;4.22;;;3.17;;
16524;SDS011;8375;33.594;-117.718;2023-05-21T20:43:16;3.35;;;3.05;;
16524;SDS011;8375;33.594;-117.718;2023-05-21T20:45:45;4.18;;;3.47;;
16524;SDS011;8375;33.594;-117.718;2023-05-21T20:48:14;3.40;;;3.10;;
16524;SDS011;8375;33.594;-117.718;2023-05-21T20:50:43;4.07;;;2.50;;
16524;SDS011;8375;33.594;-117.718;2023-05-21T20:53:14;4.30;;;2.70;;
16524;SDS011;8375;33.594;-117.718;2023-05-21T20:55:43;3.42;;;3.10;;
16524;SDS011;8375;33.594;-117.718;2023-05-21T20:58:12;3.00;;;2.70;;
16524;SDS011;8375;33.594;-117.718;2023-05-21T21:00:43;6.20;;;2.72;;
16524;SDS011;8375;33.594;-117.718;2023-05-21T21:03:12;3.65;;;2.80;;
16524;SDS011;8375;33.594;-117.718;2023-05-21T21:05:42;4.47;;;3.10;;
16524;SDS011;8375;33.594;-117.718;2023-05-21T21:08:11;4.32;;;3.92;;
16524;SDS011;8375;33.594;-117.718;2023-05-21T21:10:40;3.05;;;2.78;;
16524;SDS011;8375;33.594;-117.718;2023-05-21T21:13:11;2.80;;;2.50;;
16524;SDS011;8375;33.594;-117.718;2023-05-21T21:15:40;3.70;;;2.53;;
16524;SDS011;8375;33.594;-117.718;2023-05-21T21:18:10;3.33;;;2.45;;
16524;SDS011;8375;33.594;-117.718;2023-05-21T21:20:39;4.47;;;2.63;;
16524;SDS011;8375;33.594;-117.718;2023-05-21T21:23:08;3.47;;;2.17;;
16524;SDS011;8375;33.594;-117.718;2023-05-21T21:25:36;3.53;;;2.63;;
16524;SDS011;8375;33.594;-117.718;2023-05-21T21:28:05;4.25;;;2.40;;
16524;SDS011;8375;33.594;-117.718;2023-05-21T21:30:35;3.45;;;2.58;;
16524;SDS011;8375;33.594;-117.718;2023-05-21T21:33:06;4.10;;;2.63;;
16524;SDS011;8375;33.594;-117.718;2023-05-21T21:35:35;3.30;;;2.03;;
16524;SDS011;8375;33.594;-117.718;2023-05-21T21:38:05;3.10;;;1.92;;
16524;SDS011;8375;33.594;-117.718;2023-05-21T21:40:34;2.95;;;1.90;;
16524;SDS011;8375;33.594;-117.718;2023-05-21T21:43:03;3.63;;;2.00;;
16524;SDS011;8375;33.594;-117.718;2023-05-21T21:45:31;3.60;;;2.17;;
16524;SDS011;8375;33.594;-117.718;2023-05-21T21:48:00;3.13;;;2.00;;
16524;SDS011;8375;33.594;-117.718;2023-05-21T21:50:30;4.10;;;2.53;;
16524;SDS011;8375;33.594;-117.718;2023-05-21T21:52:59;2.35;;;1.88;;
16524;SDS011;8375;33.594;-117.718;2023-05-21T21:55:28;2.58;;;2.17;;
16524;SDS011;8375;33.594;-117.718;2023-05-21T21:57:56;3.28;;;2.05;;
16524;SDS011;8375;33.594;-117.718;2023-05-21T22:00:25;2.30;;;2.10;;
16524;SDS011;8375;33.594;-117.718;2023-05-21T22:02:54;2.20;;;2.00;;
16524;SDS011;8375;33.594;-117.718;2023-05-21T22:05:23;3.03;;;2.08;;
16524;SDS011;8375;33.594;-117.718;2023-05-21T22:07:56;2.83;;;2.28;;
16524;SDS011;8375;33.594;-117.718;2023-05-21T22:10:25;2.47;;;2.13;;
16524;SDS011;8375;33.594;-117.718;2023-05-21T22:12:54;3.13;;;2.33;;
16524;SDS011;8375;33.594;-117.718;2023-05-21T22:15:23;2.05;;;1.85;;
16524;SDS011;8375;33.594;-117.718;2023-05-21T22:17:54;3.55;;;1.80;;
16524;SDS011;8375;33.594;-117.718;2023-05-21T22:20:23;3.08;;;2.15;;
16524;SDS011;8375;33.594;-117.718;2023-05-21T22:22:53;2.42;;;1.80;;
16524;SDS011;8375;33.594;-117.718;2023-05-21T22:25:24;3.17;;;1.90;;